OIZI  Iran Shahr  Airport

Iranshahr, Iran

Add Bookmark
ICAO OIZI
Type Airport
Status Operational
Latitude
27° 14' 9" N
27.236099
Longitude
60° 43' 12" E
60.720001
Local (GMT +3.5 ) UTC
Dec 7, 2016 05:54 pm Dec 7, 2016 14:24
Sunrise-Sunset Local UTC
Begin Civil Twilight 05:37 am 02:07
Sunrise 06:03 am 02:33
Sunset 04:34 pm 13:04
End Civil Twilight 04:59 pm 13:29
VFR
VFR
MVFR
MVFR
IFR
IFR
LIFR
LIFR
Unknown
No Data

Current Weather

METAR Observed VFR
OIZI 071400Z 33004KT CAVOK 26/01 Q1017 Wed, Dec 7, 2016 @ 14:00 UTC
(24 Minutes ago)
Visual Flight Rules
Wind Visibility Conditions
330° at 4 knots (7 kph) 10 km or more
  • No significant weather
Temperatures Readings Precipitation
Current Temp
26°C
79°F
Dewpoint
1°C
34°F
Humidity 20%
Altimeter 30.03" Hg
Sea Level Pressure 1,017 mb
Field Elevation
591 m
1,939 ft
None Recorded
-
-

CheckWX.com is intended as a tool to help pilots better visualize weather data. It is not intended as a substitute for an official weather briefing obtained from a Flight Service Station. CheckWX.com does not meet the FAA requirements for an official pre-flight weather briefing. Therefore, it's important that pilots still call and obtain an official FSS pre-flight weather briefing.

© 2007-2016 CheckWX.com
14:24:18 UTC